Time;durP1;ratioP1;P1;durP2;ratioP2;P2;SDS_P1;SDS_P2;PMS_P1;PMS_P2;Temp;Humidity;BMP_temperature;BMP_pressure;BME280_temperature;BME280_humidity;BME280_pressure;Samples;Min_cycle;Max_cycle;Signal;HPM_P1;HPM_P2
2021/12/20 00:02:22;;;;;;;5.60;3.20;;;;;;;2.23;95.21;98421.53;4497667;31;20096;-71
2021/12/20 00:04:52;;;;;;;3.05;2.28;;;;;;;2.24;95.08;98412.81;4484763;32;20143;-72
2021/12/20 00:07:20;;;;;;;5.10;2.87;;;;;;;2.25;95.01;98411.91;4486129;31;20137;-72
2021/12/20 00:09:47;;;;;;;5.45;2.50;;;;;;;2.26;94.81;98416.97;4486367;31;20119;-72
2021/12/20 00:12:14;;;;;;;4.60;2.53;;;;;;;2.24;95.10;98418.84;4485932;31;20445;-72
2021/12/20 00:14:41;;;;;;;6.00;3.35;;;;;;;2.29;95.02;98415.97;4486186;31;20092;-72
2021/12/20 00:17:08;;;;;;;3.22;2.33;;;;;;;2.35;94.65;98412.16;4486171;31;20088;-72
2021/12/20 00:19:36;;;;;;;3.83;2.22;;;;;;;2.39;94.38;98424.84;4486150;32;20088;-72
2021/12/20 00:22:03;;;;;;;5.78;2.95;;;;;;;2.53;93.74;98415.37;4485957;31;20085;-71
2021/12/20 00:24:30;;;;;;;4.40;2.35;;;;;;;2.56;93.31;98408.28;4486113;31;20119;-71
2021/12/20 00:26:58;;;;;;;4.75;2.40;;;;;;;2.61;93.26;98423.50;4486126;32;20157;-72
2021/12/20 00:29:25;;;;;;;4.50;2.35;;;;;;;2.62;92.90;98407.03;4494063;31;20477;-72
2021/12/20 00:31:52;;;;;;;3.53;1.77;;;;;;;2.64;92.71;98408.59;4501881;31;20157;-71
2021/12/20 00:34:19;;;;;;;3.35;1.92;;;;;;;2.71;92.38;98410.81;4501778;31;20139;-71
2021/12/20 00:36:56;;;;;;;3.28;2.15;;;;;;;2.74;92.32;98402.84;4501675;31;20096;-72
2021/12/20 00:42:09;;;;;;;3.33;1.92;;;;;;;2.75;92.47;98409.69;4501615;31;20078;-72
2021/12/20 00:44:36;;;;;;;3.72;2.00;;;;;;;2.83;91.94;98410.88;4502031;31;20092;-71
2021/12/20 00:47:04;;;;;;;3.05;1.73;;;;;;;2.86;91.96;98412.44;4501626;31;20088;-72
2021/12/20 00:49:31;;;;;;;3.45;2.20;;;;;;;2.87;91.88;98416.69;4501686;31;20092;-72
2021/12/20 00:51:58;;;;;;;4.37;2.65;;;;;;;2.87;92.05;98411.50;4501802;31;20092;-72
2021/12/20 00:54:25;;;;;;;3.22;1.77;;;;;;;2.93;91.68;98415.47;4501696;31;20487;-72
2021/12/20 00:56:52;;;;;;;2.85;1.55;;;;;;;2.95;91.82;98429.97;4501558;31;20115;-72
2021/12/20 00:59:20;;;;;;;3.00;1.90;;;;;;;2.96;91.73;98433.38;4501871;31;20524;-72
2021/12/20 01:01:47;;;;;;;4.03;2.05;;;;;;;2.93;91.60;98460.28;4501440;31;20126;-72
2021/12/20 01:04:14;;;;;;;4.53;2.28;;;;;;;2.93;91.64;98437.00;4487258;31;20088;-72
2021/12/20 01:06:42;;;;;;;3.85;2.00;;;;;;;2.90;91.66;98426.84;4485660;31;20088;-72
2021/12/20 01:09:09;;;;;;;4.60;1.98;;;;;;;2.90;91.58;98431.19;4485732;31;20540;-72
2021/12/20 01:11:40;;;;;;;2.95;1.92;;;;;;;2.86;91.94;98448.63;4485650;32;20097;-72
2021/12/20 01:14:07;;;;;;;6.80;1.67;;;;;;;2.82;91.86;98439.44;4485554;31;20116;-71
2021/12/20 01:16:34;;;;;;;2.60;1.67;;;;;;;2.79;92.29;98450.78;4484520;31;20161;-71
2021/12/20 01:19:02;;;;;;;2.97;1.98;;;;;;;2.77;92.13;98444.91;4485703;31;20088;-72
2021/12/20 01:21:30;;;;;;;2.83;1.70;;;;;;;2.76;92.49;98468.28;4485512;31;20126;-72
2021/12/20 01:23:57;;;;;;;2.62;1.65;;;;;;;2.75;92.38;98453.66;4485561;31;20114;-72
2021/12/20 01:26:24;;;;;;;3.40;1.87;;;;;;;2.72;94.00;98461.63;4485483;31;20084;-72
2021/12/20 01:28:51;;;;;;;2.62;1.23;;;;;;;2.64;93.85;98468.09;4491189;31;20115;-72
2021/12/20 01:31:19;;;;;;;2.95;1.55;;;;;;;2.65;93.37;98500.78;4501388;31;20385;-72
2021/12/20 01:33:46;;;;;;;2.15;1.42;;;;;;;2.60;94.44;98476.94;4501105;31;20449;-72
2021/12/20 01:36:13;;;;;;;3.28;1.80;;;;;;;2.48;95.99;98488.06;4501474;31;20114;-72
2021/12/20 01:38:40;;;;;;;3.85;1.83;;;;;;;2.42;97.56;98485.84;4501473;31;20164;-72
2021/12/20 01:41:08;;;;;;;3.08;1.42;;;;;;;2.39;98.44;98470.50;4501145;31;20123;-72
2021/12/20 01:43:37;;;;;;;2.90;1.23;;;;;;;2.33;98.86;98470.88;4501343;31;20100;-72
2021/12/20 01:46:05;;;;;;;3.42;1.60;;;;;;;2.29;98.72;98458.16;4501128;31;20080;-72
2021/12/20 01:48:32;;;;;;;3.33;1.55;;;;;;;2.25;99.12;98451.50;4501300;31;20102;-72
2021/12/20 01:53:37;;;;;;;3.55;2.03;;;;;;;2.18;100.00;98481.22;4500003;31;20096;-72
2021/12/20 01:56:05;;;;;;;2.17;1.50;;;;;;;2.12;100.00;98466.09;4500153;31;20123;-72
2021/12/20 01:58:33;;;;;;;2.97;1.70;;;;;;;2.09;100.00;98461.94;4501113;31;20123;-72
2021/12/20 02:03:40;;;;;;;1.48;0.93;;;;;;;2.07;100.00;98465.53;4489602;31;20167;-72
2021/12/20 02:09:08;;;;;;;1.95;1.42;;;;;;;2.00;100.00;98480.56;4477412;32;20096;-72
2021/12/20 02:11:36;;;;;;;2.28;1.40;;;;;;;1.93;100.00;98476.69;4485281;31;20124;-71
2021/12/20 02:14:05;;;;;;;2.28;1.48;;;;;;;1.91;100.00;98489.69;4485422;32;20135;-72
2021/12/20 02:16:33;;;;;;;3.00;1.77;;;;;;;1.88;100.00;98507.94;4485274;31;20097;-72
2021/12/20 02:19:06;;;;;;;3.25;1.50;;;;;;;1.85;100.00;98490.03;4485174;31;20080;-72
2021/12/20 02:21:34;;;;;;;4.47;1.50;;;;;;;1.85;100.00;98509.88;4485482;31;20092;-72
2021/12/20 02:24:01;;;;;;;1.80;1.12;;;;;;;1.85;100.00;98502.13;4485588;31;20115;-72
2021/12/20 02:26:29;;;;;;;2.42;1.17;;;;;;;1.87;100.00;98502.88;4485180;32;20114;-72
2021/12/20 02:29:02;;;;;;;1.80;1.23;;;;;;;1.78;100.00;98507.63;4490975;31;20095;-72
2021/12/20 02:37:26;;;;;;;2.40;1.23;;;;;;;1.78;100.00;98514.56;4500963;31;20084;-71
2021/12/20 02:39:55;;;;;;;1.92;1.00;;;;;;;1.72;100.00;98520.88;4500992;31;20095;-72
2021/12/20 02:42:27;;;;;;;2.85;1.23;;;;;;;1.66;100.00;98521.25;4500890;31;20099;-72
2021/12/20 02:45:32;;;;;;;1.95;1.17;;;;;;;1.59;100.00;98519.94;4500883;31;20084;-72
2021/12/20 02:47:48;;;;;;;2.00;0.90;;;;;;;1.44;100.00;98519.06;4499348;31;20110;-71
2021/12/20 02:50:16;;;;;;;1.87;1.23;;;;;;;1.34;100.00;98516.13;4500801;31;20126;-72
2021/12/20 02:52:43;;;;;;;1.05;0.70;;;;;;;1.25;100.00;98526.97;4500776;31;20088;-72
2021/12/20 02:55:11;;;;;;;1.48;1.10;;;;;;;1.18;100.00;98523.06;4500594;31;20104;-72
2021/12/20 02:57:39;;;;;;;1.45;1.10;;;;;;;1.04;100.00;98532.38;4499447;31;20561;-71
2021/12/20 03:00:08;;;;;;;2.03;1.00;;;;;;;1.03;100.00;98537.63;4500694;31;20100;-72
2021/12/20 03:02:36;;;;;;;1.87;1.20;;;;;;;0.92;100.00;98537.37;4497278;31;20103;-72
2021/12/20 03:05:04;;;;;;;1.20;1.00;;;;;;;0.87;100.00;98538.44;4485064;31;20155;-72
2021/12/20 03:07:40;;;;;;;1.77;1.00;;;;;;;0.84;100.00;98537.78;4484845;31;20497;-72
2021/12/20 03:10:09;;;;;;;3.50;1.17;;;;;;;0.88;100.00;98541.88;4484725;31;20104;-72
2021/12/20 03:12:36;;;;;;;2.15;1.10;;;;;;;0.75;100.00;98552.00;4483395;32;20108;-71
2021/12/20 03:15:11;;;;;;;2.00;1.33;;;;;;;0.80;100.00;98567.22;4484920;31;20097;-71
2021/12/20 03:17:39;;;;;;;1.80;1.00;;;;;;;0.80;100.00;98570.66;4484838;32;20123;-72
2021/12/20 03:20:07;;;;;;;2.45;0.90;;;;;;;0.74;100.00;98565.78;4484823;31;20135;-71
2021/12/20 03:22:34;;;;;;;1.48;0.98;;;;;;;0.71;100.00;98558.22;4484693;31;20115;-72
2021/12/20 03:25:01;;;;;;;1.12;0.62;;;;;;;0.70;100.00;98561.72;4484544;31;20096;-71
2021/12/20 03:27:28;;;;;;;1.87;0.90;;;;;;;0.68;100.00;98558.38;4484596;31;20100;-71
2021/12/20 03:29:55;;;;;;;1.17;0.70;;;;;;;0.65;100.00;98572.28;4497103;31;20088;-71
2021/12/20 03:32:23;;;;;;;1.23;0.80;;;;;;;0.64;100.00;98567.22;4500268;31;20092;-71
2021/12/20 03:34:50;;;;;;;1.10;0.73;;;;;;;0.57;100.00;98566.66;4500445;31;20107;-72
2021/12/20 03:37:17;;;;;;;0.47;0.40;;;;;;;0.43;100.00;98551.94;4500269;31;20540;-72
2021/12/20 03:39:44;;;;;;;3.40;1.00;;;;;;;0.41;100.00;98540.03;4501043;31;20100;-72
2021/12/20 03:42:11;;;;;;;1.20;0.50;;;;;;;0.37;100.00;98559.97;4502213;31;20104;-72
2021/12/20 03:44:43;;;;;;;2.75;1.10;;;;;;;0.38;100.00;98571.94;4502192;31;20092;-72
2021/12/20 03:47:12;;;;;;;2.05;1.33;;;;;;;0.32;100.00;98561.97;4502108;31;20104;-71
2021/12/20 03:49:41;;;;;;;1.17;0.82;;;;;;;0.25;100.00;98550.28;4502184;31;20107;-72
2021/12/20 03:52:09;;;;;;;3.55;1.17;;;;;;;0.24;100.00;98566.66;4502394;31;20104;-71
2021/12/20 03:54:37;;;;;;;1.83;1.30;;;;;;;0.25;100.00;98565.75;4502163;31;20115;-72
2021/12/20 03:57:05;;;;;;;1.83;1.05;;;;;;;0.24;99.49;98566.66;4502017;31;20115;-71
2021/12/20 03:59:33;;;;;;;2.40;1.33;;;;;;;0.19;99.06;98572.03;4501953;31;20092;-71
2021/12/20 04:02:01;;;;;;;1.77;1.20;;;;;;;0.20;98.43;98572.84;4502308;31;20092;-72
2021/12/20 04:04:28;;;;;;;3.10;1.25;;;;;;;0.12;98.13;98581.81;4486504;31;20131;-72
2021/12/20 04:06:55;;;;;;;1.42;0.80;;;;;;;0.14;97.55;98584.31;4486404;31;20532;-71
2021/12/20 04:09:23;;;;;;;3.40;1.52;;;;;;;0.14;97.39;98594.62;4486175;31;20096;-72
2021/12/20 04:11:50;;;;;;;2.15;1.30;;;;;;;0.08;97.12;98582.06;4486189;31;20092;-71
2021/12/20 04:14:17;;;;;;;2.20;1.10;;;;;;;0.12;96.68;98588.69;4486212;31;20347;-72
2021/12/20 04:16:44;;;;;;;2.37;1.33;;;;;;;0.04;96.90;98583.94;4486106;32;20092;-71
2021/12/20 04:19:11;;;;;;;5.10;1.00;;;;;;;0.05;96.79;98587.34;4486168;31;20172;-71
2021/12/20 04:21:38;;;;;;;3.17;1.17;;;;;;;-0.01;96.85;98588.47;4486421;31;20460;-71
2021/12/20 04:24:06;;;;;;;1.52;1.08;;;;;;;-0.09;97.06;98588.00;4486043;31;20099;-71
2021/12/20 04:26:33;;;;;;;1.73;1.02;;;;;;;-0.11;97.03;98577.78;4486020;31;20183;-71
2021/12/20 04:29:00;;;;;;;0.98;0.90;;;;;;;-0.14;96.98;98579.69;4492535;31;20135;-72
2021/12/20 04:31:28;;;;;;;6.15;1.58;;;;;;;-0.20;96.92;98585.97;4501928;31;20100;-71
2021/12/20 04:33:56;;;;;;;1.37;1.00;;;;;;;-0.21;96.70;98595.44;4501699;31;20604;-71
2021/12/20 04:36:23;;;;;;;4.62;1.05;;;;;;;-0.29;96.84;98596.69;4501660;31;20106;-71
2021/12/20 04:38:50;;;;;;;3.05;1.15;;;;;;;-0.29;96.64;98594.94;4501688;31;20083;-71
2021/12/20 04:41:17;;;;;;;2.25;1.02;;;;;;;-0.28;96.22;98603.53;4501880;31;20146;-71
2021/12/20 04:43:44;;;;;;;3.62;1.62;;;;;;;-0.33;95.98;98606.31;4501824;31;20407;-71
2021/12/20 04:46:12;;;;;;;4.00;1.67;;;;;;;-0.37;96.23;98620.22;4501658;31;20122;-71
2021/12/20 04:48:39;;;;;;;2.85;1.40;;;;;;;-0.47;96.46;98611.25;4501635;31;20092;-71
2021/12/20 04:51:06;;;;;;;3.17;1.20;;;;;;;-0.49;96.37;98618.22;4500205;31;20099;-71
2021/12/20 04:53:34;;;;;;;2.87;1.67;;;;;;;-0.48;95.90;98617.34;4501745;31;20156;-71
2021/12/20 04:56:01;;;;;;;2.33;1.40;;;;;;;-0.42;95.34;98622.19;4501593;31;20164;-71
2021/12/20 04:58:28;;;;;;;2.47;1.37;;;;;;;-0.44;94.73;98605.97;4501595;31;20119;-71
2021/12/20 05:00:55;;;;;;;5.00;1.00;;;;;;;-0.45;94.73;98622.34;4501254;31;20104;-72
2021/12/20 05:03:23;;;;;;;3.22;1.52;;;;;;;-0.46;94.34;98633.53;4492854;31;20153;-72
2021/12/20 05:05:50;;;;;;;2.40;1.00;;;;;;;-0.41;93.29;98631.56;4485674;31;20092;-72
2021/12/20 05:08:17;;;;;;;5.10;1.48;;;;;;;-0.39;92.77;98637.50;4485742;31;20131;-72
2021/12/20 05:10:45;;;;;;;2.15;1.70;;;;;;;-0.47;92.83;98629.28;4486034;32;20421;-72
2021/12/20 05:13:13;;;;;;;4.90;1.60;;;;;;;-0.47;92.54;98650.72;4485787;32;20115;-72
2021/12/20 05:15:44;;;;;;;5.12;1.98;;;;;;;-0.49;92.46;98646.53;4485459;31;20148;-72
2021/12/20 05:18:12;;;;;;;4.05;1.37;;;;;;;-0.60;92.79;98660.72;4484394;32;20169;-72
2021/12/20 05:20:39;;;;;;;3.47;1.20;;;;;;;-0.58;92.64;98664.03;4484525;31;20123;-72
2021/12/20 05:23:08;;;;;;;3.55;1.35;;;;;;;-0.63;92.75;98653.16;4485307;31;20525;-72
2021/12/20 05:25:37;;;;;;;2.40;1.20;;;;;;;-0.63;92.32;98654.91;4483921;32;20118;-72
2021/12/20 05:28:05;;;;;;;2.33;1.10;;;;;;;-0.70;92.58;98662.03;4488848;31;20092;-72
2021/12/20 05:30:32;;;;;;;1.10;0.90;;;;;;;-0.68;92.79;98667.09;4483911;31;20156;-72
2021/12/20 05:33:00;;;;;;;3.90;1.33;;;;;;;-0.69;92.86;98679.16;4494434;31;20473;-72
2021/12/20 05:35:28;;;;;;;5.12;1.17;;;;;;;-0.75;92.83;98674.28;4497539;31;20165;-72
2021/12/20 05:37:55;;;;;;;8.35;2.65;;;;;;;-0.74;92.51;98673.38;4491069;31;20149;-72
2021/12/20 05:40:22;;;;;;;2.65;1.62;;;;;;;-0.76;92.26;98676.03;4491855;31;20108;-72
2021/12/20 05:42:50;;;;;;;2.47;1.12;;;;;;;-0.78;92.31;98675.25;4492670;31;20087;-72
2021/12/20 05:45:18;;;;;;;4.72;1.33;;;;;;;-0.81;92.36;98687.41;4494757;31;20096;-72
2021/12/20 05:47:46;;;;;;;3.22;1.60;;;;;;;-0.78;92.00;98682.97;4492439;31;20124;-72
2021/12/20 05:50:15;;;;;;;1.17;1.02;;;;;;;-0.81;91.72;98683.09;4492082;31;20100;-72
2021/12/20 05:52:42;;;;;;;2.33;1.70;;;;;;;-0.81;91.14;98680.53;4492184;31;20119;-72
2021/12/20 05:55:10;;;;;;;4.28;0.90;;;;;;;-0.78;90.67;98687.28;4492356;31;20156;-71
2021/12/20 05:57:37;;;;;;;4.65;1.50;;;;;;;-0.80;90.22;98695.06;4493300;31;20103;-72
2021/12/20 06:00:17;;;;;;;3.20;1.12;;;;;;;-0.83;90.19;98699.50;4492046;31;20177;-72
2021/12/20 06:02:47;;;;;;;4.10;1.65;;;;;;;-0.85;89.44;98701.31;4491747;31;20213;-72
2021/12/20 06:05:14;;;;;;;4.00;1.87;;;;;;;-0.76;88.19;98713.75;4489037;31;20130;-72
2021/12/20 06:07:43;;;;;;;4.37;1.75;;;;;;;-0.74;88.16;98717.94;4491976;31;20116;-71
2021/12/20 06:10:16;;;;;;;10.43;1.90;;;;;;;-0.70;87.59;98715.22;4492292;31;20491;-72
2021/12/20 06:12:44;;;;;;;3.10;1.33;;;;;;;-0.66;86.93;98716.78;4496629;31;20092;-72
2021/12/20 06:15:12;;;;;;;6.20;1.73;;;;;;;-0.65;86.50;98733.84;4499034;31;20096;-72
2021/12/20 06:17:40;;;;;;;6.47;2.17;;;;;;;-0.66;86.39;98732.22;4498621;31;20096;-73
2021/12/20 06:20:10;;;;;;;5.87;1.20;;;;;;;-0.66;86.04;98730.47;4488526;31;20229;-72
2021/12/20 06:22:38;;;;;;;2.92;1.48;;;;;;;-0.75;85.86;98726.53;4478073;31;20157;-72
2021/12/20 06:25:05;;;;;;;2.15;1.20;;;;;;;-0.73;85.63;98734.19;4496685;31;20097;-72
2021/12/20 06:27:32;;;;;;;5.00;1.60;;;;;;;-0.76;85.86;98744.63;4497991;31;20126;-72
2021/12/20 06:30:00;;;;;;;5.72;1.52;;;;;;;-0.76;86.10;98747.19;4488214;31;20108;-72
2021/12/20 06:32:27;;;;;;;2.70;1.30;;;;;;;-0.86;86.56;98740.78;4500302;31;20155;-72
2021/12/20 06:34:55;;;;;;;3.67;1.27;;;;;;;-0.83;86.64;98749.22;4498939;31;20565;-71
2021/12/20 06:37:23;;;;;;;5.05;1.77;;;;;;;-0.83;86.67;98744.06;4500605;31;20430;-73
2021/12/20 06:39:50;;;;;;;2.22;1.17;;;;;;;-0.88;86.72;98751.13;4500564;31;20516;-72
2021/12/20 06:42:17;;;;;;;1.50;0.82;;;;;;;-0.90;86.59;98756.34;4500653;31;20101;-72
2021/12/20 06:44:44;;;;;;;3.03;1.40;;;;;;;-0.82;85.47;98750.84;4499448;31;20113;-71
2021/12/20 06:47:11;;;;;;;1.75;0.95;;;;;;;-0.79;84.90;98753.31;4500347;31;20409;-72
2021/12/20 06:49:38;;;;;;;4.03;1.27;;;;;;;-0.69;83.71;98747.78;4499912;31;20608;-71
2021/12/20 06:52:06;;;;;;;3.12;1.60;;;;;;;-0.64;83.08;98749.22;4499228;31;20088;-72
2021/12/20 06:54:33;;;;;;;3.92;1.23;;;;;;;-0.63;82.74;98755.22;4498560;31;20088;-72
2021/12/20 06:57:00;;;;;;;2.45;1.40;;;;;;;-0.55;81.83;98760.84;4499588;31;20114;-71
2021/12/20 06:59:28;;;;;;;6.00;1.42;;;;;;;-0.48;81.05;98759.69;4499556;31;20126;-71
2021/12/20 07:01:55;;;;;;;2.72;1.10;;;;;;;-0.44;80.21;98757.81;4499573;31;20087;-71
2021/12/20 07:04:22;;;;;;;3.30;1.02;;;;;;;-0.34;79.36;98758.25;4499019;31;20179;-72
2021/12/20 07:06:52;;;;;;;2.62;1.25;;;;;;;-0.30;79.29;98755.47;4498668;31;20087;-71
2021/12/20 07:09:19;;;;;;;2.55;1.20;;;;;;;-0.23;78.79;98772.31;4497379;31;20104;-72
2021/12/20 07:11:46;;;;;;;4.53;1.00;;;;;;;-0.17;79.28;98776.31;4484461;31;20114;-72
2021/12/20 07:14:14;;;;;;;15.23;2.15;;;;;;;-0.12;78.88;98783.84;4495410;31;20123;-72
2021/12/20 07:16:41;;;;;;;5.35;1.55;;;;;;;-0.07;78.90;98792.22;4499667;31;20122;-72
2021/12/20 07:19:08;;;;;;;3.08;1.58;;;;;;;-0.07;79.19;98792.22;4500031;31;20122;-71
2021/12/20 07:21:36;;;;;;;2.40;1.33;;;;;;;-0.01;79.01;98791.94;4500301;31;20112;-72
2021/12/20 07:24:03;;;;;;;3.90;1.67;;;;;;;0.04;78.85;98782.25;4499778;31;20087;-72
2021/12/20 07:26:31;;;;;;;4.50;1.17;;;;;;;0.04;79.19;98784.00;4498321;31;20138;-73
2021/12/20 07:28:59;;;;;;;6.20;1.45;;;;;;;0.07;79.07;98782.09;4494439;31;20184;-73
2021/12/20 07:31:27;;;;;;;2.37;1.23;;;;;;;0.08;79.38;98778.62;4500079;31;20084;-73
2021/12/20 07:33:54;;;;;;;3.15;1.50;;;;;;;0.15;79.44;98784.31;4498075;31;20084;-72
2021/12/20 07:36:22;;;;;;;3.90;1.30;;;;;;;0.23;79.32;98783.97;4499242;31;20096;-72
2021/12/20 07:38:50;;;;;;;2.22;1.20;;;;;;;0.15;80.24;98790.31;4499760;31;20551;-73
2021/12/20 07:41:21;;;;;;;2.45;1.20;;;;;;;0.22;80.42;98782.31;4500032;31;20488;-73
2021/12/20 07:43:50;;;;;;;5.53;1.75;;;;;;;0.23;80.69;98769.34;4490792;31;20484;-72
2021/12/20 07:46:18;;;;;;;3.70;1.25;;;;;;;0.28;81.17;98766.56;4499059;31;20096;-73
2021/12/20 07:48:46;;;;;;;4.82;1.60;;;;;;;0.34;81.18;98763.69;4499494;31;20505;-72
2021/12/20 07:51:14;;;;;;;0.93;0.77;;;;;;;0.30;81.87;98767.31;4499825;31;20452;-72
2021/12/20 07:53:42;;;;;;;3.83;1.20;;;;;;;0.38;81.31;98777.25;4498217;31;20101;-73
2021/12/20 07:56:09;;;;;;;3.78;1.23;;;;;;;0.35;81.47;98773.91;4499021;31;20121;-73
2021/12/20 07:58:37;;;;;;;2.97;1.48;;;;;;;0.42;81.16;98777.03;4499534;31;20138;-72
2021/12/20 08:01:04;;;;;;;1.73;0.90;;;;;;;0.48;80.86;98778.50;4497913;31;20150;-72
2021/12/20 08:03:34;;;;;;;4.12;1.80;;;;;;;0.57;81.37;98777.22;4498509;31;20123;-72
2021/12/20 08:06:01;;;;;;;4.57;2.08;;;;;;;0.62;81.59;98786.41;4498804;31;20088;-72
2021/12/20 08:08:28;;;;;;;1.85;0.90;;;;;;;0.66;82.10;98789.66;4481206;31;20167;-72
2021/12/20 08:10:57;;;;;;;5.03;0.85;;;;;;;0.72;81.22;98786.78;4482368;31;20410;-72
2021/12/20 08:13:24;;;;;;;1.60;0.60;;;;;;;0.74;81.49;98794.44;4494277;31;20071;-72
2021/12/20 08:15:53;;;;;;;4.32;0.98;;;;;;;0.81;80.68;98801.81;4482623;31;20076;-72
2021/12/20 08:18:21;;;;;;;5.85;1.25;;;;;;;0.87;79.21;98796.34;4483055;32;20104;-72
2021/12/20 08:20:48;;;;;;;2.22;1.33;;;;;;;0.91;78.68;98798.78;4493721;31;20122;-72
2021/12/20 08:23:16;;;;;;;1.65;1.12;;;;;;;0.97;76.47;98786.41;4497549;31;20771;-72
2021/12/20 08:25:43;;;;;;;2.45;0.77;;;;;;;1.02;75.63;98794.75;4499008;31;20145;-72
2021/12/20 08:28:10;;;;;;;1.10;0.52;;;;;;;1.06;74.23;98806.59;4500889;31;20127;-73
2021/12/20 08:30:37;;;;;;;1.75;0.77;;;;;;;1.14;72.34;98810.53;4499537;31;20088;-73
2021/12/20 08:33:06;;;;;;;1.02;0.80;;;;;;;1.26;72.08;98822.84;4500218;31;20148;-73
2021/12/20 08:35:34;;;;;;;2.42;0.90;;;;;;;1.32;71.90;98819.94;4499991;31;20500;-71
2021/12/20 08:38:01;;;;;;;1.37;0.85;;;;;;;1.32;71.57;98829.44;4492796;31;20104;-71
2021/12/20 08:40:28;;;;;;;1.73;0.70;;;;;;;1.45;72.32;98827.87;4500638;31;20139;-73
2021/12/20 08:42:55;;;;;;;1.33;0.70;;;;;;;1.44;72.65;98826.22;4498084;31;20119;-72
2021/12/20 08:45:23;;;;;;;3.75;1.20;;;;;;;1.41;72.95;98847.03;4498377;31;20114;-72
2021/12/20 08:47:51;;;;;;;4.87;1.25;;;;;;;1.33;72.61;98833.66;4500439;31;20112;-73
2021/12/20 08:50:20;;;;;;;0.68;0.40;;;;;;;1.28;73.28;98817.59;4500648;31;20460;-73
2021/12/20 08:52:48;;;;;;;2.70;0.65;;;;;;;1.35;72.37;98809.47;4491467;31;20525;-74
2021/12/20 08:55:15;;;;;;;3.20;0.80;;;;;;;1.37;72.52;98820.53;4484195;31;20088;-73
2021/12/20 08:57:43;;;;;;;1.00;0.80;;;;;;;1.33;72.84;98805.28;4500775;31;20096;-73
2021/12/20 09:00:15;;;;;;;2.58;0.90;;;;;;;1.36;72.39;98794.78;4500524;31;20393;-73
2021/12/20 09:02:42;;;;;;;1.48;0.93;;;;;;;1.46;73.20;98788.25;4500188;31;21183;-73
2021/12/20 09:05:10;;;;;;;3.10;1.12;;;;;;;1.47;73.21;98794.25;4501132;31;20388;-72
2021/12/20 09:07:40;;;;;;;2.62;0.75;;;;;;;1.50;73.42;98782.03;4500631;31;20492;-71
2021/12/20 09:10:10;;;;;;;2.70;1.05;;;;;;;1.52;71.28;98782.78;4501262;31;20084;-72
2021/12/20 09:12:38;;;;;;;1.70;1.08;;;;;;;1.52;71.71;98802.59;4501161;31;20092;-73
2021/12/20 09:15:06;;;;;;;1.08;0.70;;;;;;;1.52;71.39;98794.84;4500561;31;20099;-73
2021/12/20 09:17:34;;;;;;;5.15;1.05;;;;;;;1.66;71.74;98797.53;4500947;31;20119;-73
2021/12/20 09:20:01;;;;;;;1.58;0.88;;;;;;;1.68;70.33;98802.63;4496385;31;20491;-73
2021/12/20 09:22:30;;;;;;;2.72;0.95;;;;;;;1.74;70.61;98804.87;4490122;31;20131;-72
2021/12/20 09:24:57;;;;;;;5.25;1.05;;;;;;;1.69;69.94;98802.53;4490987;31;20115;-73
2021/12/20 09:27:24;;;;;;;4.68;0.62;;;;;;;1.79;69.13;98800.31;4500620;31;20167;-75
2021/12/20 09:29:51;;;;;;;1.30;0.50;;;;;;;1.88;68.07;98809.34;4500576;31;20091;-73
2021/12/20 09:32:19;;;;;;;0.98;0.52;;;;;;;1.99;67.34;98829.44;4499974;31;20472;-75
2021/12/20 09:34:46;;;;;;;1.00;0.65;;;;;;;1.88;67.21;98801.59;4498333;31;20127;-72
2021/12/20 09:37:13;;;;;;;3.90;0.77;;;;;;;1.89;66.48;98806.69;4498904;31;20122;-72
2021/12/20 09:39:42;;;;;;;1.75;0.62;;;;;;;1.79;66.96;98795.16;4500164;31;20084;-72
2021/12/20 09:42:12;;;;;;;1.35;0.70;;;;;;;1.88;67.45;98802.41;4495493;31;20167;-73
2021/12/20 09:44:43;;;;;;;3.67;0.75;;;;;;;2.01;66.92;98788.84;4500607;31;20110;-74
2021/12/20 09:47:11;;;;;;;2.08;0.70;;;;;;;2.17;66.07;98794.03;4499287;31;20134;-74
2021/12/20 09:49:38;;;;;;;8.85;0.40;;;;;;;2.16;65.64;98795.75;4494116;31;181352;-74
2021/12/20 09:52:06;;;;;;;2.17;0.40;;;;;;;2.16;66.32;98789.75;4500122;31;20095;-73
2021/12/20 09:54:33;;;;;;;2.22;1.00;;;;;;;2.06;67.00;98792.00;4499983;31;20156;-73
2021/12/20 09:57:02;;;;;;;0.93;0.57;;;;;;;2.04;66.84;98804.19;4499827;31;20095;-72
2021/12/20 09:59:30;;;;;;;0.70;0.60;;;;;;;2.00;65.92;98807.84;4500033;31;20385;-74
2021/12/20 10:01:58;;;;;;;1.62;0.93;;;;;;;2.12;67.39;98797.69;4500051;31;20096;-74
2021/12/20 10:04:26;;;;;;;5.10;1.58;;;;;;;2.19;67.96;98798.19;4500010;31;20148;-73
2021/12/20 10:06:56;;;;;;;0.75;0.45;;;;;;;2.15;67.82;98798.44;4498697;31;20131;-73
2021/12/20 10:09:30;;;;;;;2.95;1.00;;;;;;;2.13;67.29;98811.44;4498867;31;20118;-73
2021/12/20 10:12:14;;;;;;;4.53;0.93;;;;;;;2.11;67.82;98800.34;4495946;31;20571;-72
2021/12/20 10:15:02;;;;;;;;;;;;;;;2.13;68.58;98804.53;4500055;31;20092;-72
2021/12/20 10:17:49;;;;;;;2.83;0.80;;;;;;;2.09;69.43;98797.00;4499803;31;19979;-72
2021/12/20 10:20:19;;;;;;;2.15;0.77;;;;;;;2.18;68.82;98796.53;4500778;31;20127;-72
2021/12/20 10:22:47;;;;;;;2.28;0.95;;;;;;;2.17;68.25;98805.19;4498746;31;20107;-72
2021/12/20 10:25:26;;;;;;;1.87;0.80;;;;;;;2.15;69.11;98801.88;4486279;31;20107;-71
2021/12/20 10:27:55;;;;;;;1.17;0.60;;;;;;;2.23;69.38;98812.59;4493470;31;20103;-72
2021/12/20 10:30:28;;;;;;;1.12;0.93;;;;;;;2.21;69.45;98824.78;4495432;31;20162;-72
2021/12/20 10:32:57;;;;;;;1.25;0.90;;;;;;;2.14;69.11;98807.94;4491862;31;20108;-72
2021/12/20 10:35:29;;;;;;;2.15;1.05;;;;;;;2.13;68.15;98855.38;4488832;31;20165;-73
2021/12/20 10:37:59;;;;;;;1.23;0.80;;;;;;;2.05;68.62;98837.69;4482170;31;20114;-72
2021/12/20 10:40:26;;;;;;;1.33;0.60;;;;;;;2.18;67.67;98834.44;4494020;31;20144;-73
2021/12/20 10:42:56;;;;;;;1.55;1.00;;;;;;;2.25;68.15;98833.19;4496927;31;20274;-73
2021/12/20 10:45:25;;;;;;;1.85;0.88;;;;;;;2.18;68.04;98832.72;4482962;31;20100;-74
2021/12/20 10:47:53;;;;;;;2.00;1.00;;;;;;;2.35;69.01;98843.88;4494219;31;20095;-74
2021/12/20 10:50:26;;;;;;;1.73;0.68;;;;;;;2.42;68.03;98860.72;4497305;31;20106;-73
2021/12/20 10:53:15;;;;;;;1.60;1.23;;;;;;;2.52;67.74;98861.06;4491940;31;20155;-74
2021/12/20 10:55:51;;;;;;;1.67;1.05;;;;;;;2.41;67.02;98854.72;4498666;31;20118;-74
2021/12/20 10:58:29;;;;;;;1.50;1.00;;;;;;;2.40;67.49;98839.28;4499658;31;20453;-73
2021/12/20 11:02:09;;;;;;;1.77;1.08;;;;;;;2.46;67.84;98847.53;4499253;31;20475;-73
2021/12/20 11:04:35;;;;;;;1.80;0.68;;;;;;;2.80;66.03;98861.22;4497150;31;20092;-76
2021/12/20 11:09:46;;;;;;;1.15;0.82;;;;;;;3.12;64.68;98842.16;4499081;31;20096;-76
2021/12/20 11:12:15;;;;;;;2.28;1.00;;;;;;;3.22;65.71;98829.53;4499053;31;20468;-76
2021/12/20 11:14:49;;;;;;;2.03;1.05;;;;;;;3.11;65.08;98840.53;4499934;31;20119;-78
2021/12/20 11:17:20;;;;;;;1.58;0.85;;;;;;;2.92;65.62;98836.41;4500286;31;20084;-76
2021/12/20 11:19:52;;;;;;;17.20;1.30;;;;;;;2.62;66.64;98821.69;4500102;31;20449;-76
2021/12/20 11:22:21;;;;;;;1.80;1.00;;;;;;;2.53;66.50;98853.22;4499024;31;20152;-74
2021/12/20 11:25:00;;;;;;;1.55;0.93;;;;;;;2.46;66.80;98826.84;4496712;31;20780;-74
2021/12/20 11:27:39;;;;;;;1.27;0.80;;;;;;;2.66;67.11;98823.19;4496299;31;20135;-74
2021/12/20 11:30:08;;;;;;;3.12;1.02;;;;;;;2.71;66.36;98825.50;4498652;31;20126;-75
2021/12/20 11:32:36;;;;;;;2.30;1.20;;;;;;;2.96;66.45;98819.75;4498002;31;20192;-73
2021/12/20 11:35:03;;;;;;;1.10;0.85;;;;;;;2.81;65.61;98824.03;4498932;31;20122;-72
2021/12/20 11:37:31;;;;;;;2.12;1.17;;;;;;;2.62;67.04;98846.69;4499061;31;20109;-72
2021/12/20 11:40:00;;;;;;;0.80;0.60;;;;;;;2.58;65.85;98830.50;4499407;31;20095;-72
2021/12/20 11:42:27;;;;;;;2.42;0.90;;;;;;;2.66;67.24;98843.03;4499838;31;20104;-70
2021/12/20 11:44:57;;;;;;;3.12;1.25;;;;;;;2.75;66.96;98813.22;4500123;31;20151;-71
2021/12/20 11:47:50;;;;;;;1.33;0.77;;;;;;;2.73;65.77;98823.66;4499127;31;20499;-71
2021/12/20 11:50:32;;;;;;;1.75;1.05;;;;;;;2.79;66.45;98823.31;4498474;31;20096;-72
2021/12/20 11:53:13;;;;;;;1.10;0.85;;;;;;;2.93;65.40;98850.97;4499776;31;20084;-71
2021/12/20 11:55:47;;;;;;;9.18;1.30;;;;;;;2.68;65.76;98823.09;4499315;31;20171;-71
2021/12/20 11:58:23;;;;;;;1.62;0.93;;;;;;;2.54;67.15;98833.34;4499476;31;20077;-71
2021/12/20 12:01:15;;;;;;;3.12;1.40;;;;;;;2.52;66.26;98836.03;4499988;31;20457;-71
2021/12/20 12:04:09;;;;;;;0.98;0.60;;;;;;;2.73;66.06;98853.88;4490537;31;20126;-72
2021/12/20 12:06:36;;;;;;;1.85;1.02;;;;;;;2.76;65.00;98828.66;4494905;31;20574;-72
2021/12/20 12:09:04;;;;;;;2.03;0.80;;;;;;;2.56;65.43;98847.03;4497080;31;20096;-71